Anaconda, MT

8:28 PM MDT on October 22, 2014 (GMT -0600)
Helena Regional | Change Station
CLOSE
Current Station
Airport
Location: Helena,
Elevation: 3865 ft
Nearby Weather Stations

Elev 3865 ft 46.60 °N, 111.99 °W | Updated 35 minutes ago

Clear
Clear
53 °F
Feels Like 53 °F
N
0
Wind Variable Wind from North

Today
High -- | Low -- °F
--% Chance of Precip.
Yesterday
High -- | Low -- °F
Precip. -- in
7:58 AM 6:33 PM
Waning Crescent, 1% visible
Pressure 30.02 in
Visibility 10.0 miles
Clouds Clear
Dew Point 33 °F
Humidity 47%
Rainfall 0.00 in
Snow Depth 2 in , 2 in , 2 in
UV 0 out of 12
Pollen .40 out of 12
Air Quality Not available.
Flu Activity No Activity
METAR KHLN 230153Z 00000KT 10SM CLR 12/01 A2995 RMK AO2 SLP164 T01170006

More Conditions Fewer Conditions

Pressure 30.02 in
Visibility 10.0 miles
Clouds Clear
Dew Point 33 °F
Humidity 47%
Rainfall 0.00 in
Snow Depth 2 in , 2 in , 2 in
UV 0 out of 12
Pollen .40 out of 12
Air Quality Not available.
Flu Activity No Activity
METAR KHLN 230153Z 00000KT 10SM CLR 12/01 A2995 RMK AO2 SLP164 T01170006

More Conditions Fewer Conditions

10-Day Weather Forecast

Almanac

Astronomy

Oct. 22, 2014 Rise Set
Actual Time 7:58 AM MDT 6:33 PM MDT
Civil Twilight 7:28 AM MDT 7:04 PM MDT
Nautical Twilight 6:53 AM MDT 7:38 PM MDT
Astronomical Twilight 6:18 AM MDT 8:13 PM MDT
Moon 6:40 AM MDT (10/22) 6:04 PM MDT (10/22)
Length of Visible Light 11h 35m
Length of Day
10h 34m
Tomorrow will be 3m 5s shorter.
Waning Crescent, 1% of the Moon is Illuminated
Today
Waning Crescent
Oct 23
New
Oct 30
First Quarter
Nov 6
Full
Nov 14
Last Quarter

Today's Extremes

State Highs State Lows

Community

WunderPhotos

Upload Photos

1,764,109 photos uploaded!

Nearby

Snow Depth

Station Depth Elevation
Barker Lakes 2 in 8250 ft
Warm Springs 2 in 7800 ft
Peterson Meadows 2 in 7200 ft
Black Pine 2 in 7210 ft
Combination 0 in 5600 ft

Earthquake Activity

City Distance Mag. Time & Date
No recent earthquake activity has been reported nearby.
Minimum magnitude displayed is 2.5.

Coastal Water Temperatures

Place Temperature
No Stations Reporting

Nearby Weather Stations